Loyalton, Pennsylvania
Current Conditions -  °F | °C
As of 3:53 AM on Thursday 18 Dec 2014 (Local Time) from KSEG Reporting Station
Overcast Overcast  
Wind Chill: 27°   Ceiling: 4500
Heat Index: 34°   Visibility: 10mi
Dew Point: 20°   Wind: 9mph
Humidity: 56%   Direction: 280°W
Pressure: 30.05"   Gusts: 18mph
Location:  40.6198°N, 76.7286°W
Report Text: KSEG 180853Z AUTO 28008G16KT 220V300 10SM OVC045 01/M07 A3005 RMK AO2 SLP181 T00111067 50012
Loading
Personal Weather Stations






























Interactive Weather Map New forecast layout! Learn more

10-Day Weather Forecast

Advertisements
Track Severe Weather on mobile